Rossburg, New York
Current Conditions -  °F | °C
As of 10:54 PM on Saturday 20 Dec 2014 (Local Time) from KDSV Reporting Station
Overcast Overcast  
Wind Chill: 29°   Ceiling: 2300
Heat Index: 29°   Visibility: 10mi
Dew Point: 22°   Wind: 3mph
Humidity: 75%   Direction: 340°NNW
Pressure: 30.27"   Gusts: NA
Location:  42.5°N, 78.07°W
Report Text: KDSV 210354Z AUTO 34003KT 10SM OVC023 M02/M06 A3027 RMK AO2 SLP269 T10171056
Loading
Personal Weather Stations






























Interactive Weather Map New forecast layout! Learn more

10-Day Weather Forecast

Advertisements
Track Severe Weather on mobile